createdAt,value
2022-07-29T00:04:00.386Z,0.3
2022-07-29T00:08:59.186Z,0.3
2022-07-29T00:13:59.056Z,0.3
2022-07-29T00:19:03.332Z,0.3
2022-07-29T00:23:58.118Z,0.3
2022-07-29T00:33:57.643Z,0.3
2022-07-29T00:38:57.094Z,0.3
2022-07-29T00:43:54.366Z,0.3
2022-07-29T00:48:53.051Z,0.3
2022-07-29T00:53:53.026Z,0.3
2022-07-29T00:58:51.571Z,0.3
2022-07-29T01:00:13.828Z,0.3
2022-07-29T01:05:15.640Z,0.3
2022-07-29T01:10:14.337Z,0.3
2022-07-29T01:20:09.488Z,0.2
2022-07-29T01:25:08.943Z,0.3
2022-07-29T01:35:14.938Z,0.3
2022-07-29T01:40:14.021Z,0.3
2022-07-29T01:45:13.418Z,0.3
2022-07-29T01:50:12.825Z,0.2
2022-07-29T01:55:12.282Z,0.3
2022-07-29T01:59:32.654Z,0.2
2022-07-29T02:04:32.142Z,0.3
2022-07-29T02:09:30.742Z,0.3
2022-07-29T02:14:31.809Z,0.3
2022-07-29T02:19:29.705Z,0.3
2022-07-29T02:24:29.645Z,0.3
2022-07-29T02:29:29.303Z,0.2
2022-07-29T02:34:28.197Z,0.3
2022-07-29T02:39:26.847Z,0.3
2022-07-29T02:44:29.016Z,0.3
2022-07-29T02:49:26.197Z,0.3
2022-07-29T02:54:25.082Z,0.3
2022-07-29T02:59:14.450Z,0.2
2022-07-29T03:04:14.883Z,0.3
2022-07-29T03:09:15.349Z,0.3
2022-07-29T03:14:14.314Z,0.3
2022-07-29T03:19:12.000Z,0.3
2022-07-29T03:24:14.367Z,0.3
2022-07-29T03:29:15.787Z,0.3
2022-07-29T03:34:10.348Z,0.4
2022-07-29T03:39:09.589Z,0.6
2022-07-29T03:44:09.311Z,1
2022-07-29T03:49:00.062Z,1.6
2022-07-29T03:53:58.985Z,2.5
2022-07-29T03:58:46.328Z,3.5
2022-07-29T04:03:46.241Z,3.8
2022-07-29T04:08:44.846Z,5.7
2022-07-29T04:13:45.294Z,6.9
2022-07-29T04:18:43.813Z,7.7
2022-07-29T04:23:54.860Z,9.2
2022-07-29T04:28:42.080Z,11
2022-07-29T04:33:41.420Z,11.8
2022-07-29T04:38:40.208Z,12
2022-07-29T04:43:39.528Z,13
2022-07-29T04:48:38.999Z,15.4
2022-07-29T04:53:38.668Z,15.6
2022-07-29T04:58:38.465Z,16.5
2022-07-29T05:03:37.460Z,17
2022-07-29T05:08:36.628Z,18.7
2022-07-29T05:13:48.076Z,20.2
2022-07-29T05:18:34.111Z,24.1
2022-07-29T05:23:33.701Z,29.5
2022-07-29T05:28:33.227Z,33.4
2022-07-29T05:33:38.022Z,39
2022-07-29T05:38:32.168Z,41.8
2022-07-29T05:43:32.278Z,43.1
2022-07-29T05:48:31.683Z,44.5
2022-07-29T05:53:30.785Z,54.5
2022-07-29T05:58:28.411Z,70.5
2022-07-29T06:03:27.730Z,89.1
2022-07-29T06:08:26.941Z,86.2
2022-07-29T06:13:26.146Z,90.1
2022-07-29T06:18:25.594Z,89
2022-07-29T06:23:25.599Z,98.2
2022-07-29T06:28:25.671Z,93.2
2022-07-29T06:33:24.463Z,105.9
2022-07-29T06:38:47.610Z,123.7
2022-07-29T06:43:23.566Z,147.4
2022-07-29T06:48:20.862Z,157.2
2022-07-29T06:53:19.888Z,143.1
2022-07-29T06:58:19.252Z,122.2
2022-07-29T07:03:18.992Z,123.7
2022-07-29T07:08:18.921Z,134
2022-07-29T07:13:18.114Z,415.6
2022-07-29T07:18:17.232Z,408.6
2022-07-29T07:23:16.033Z,310.5
2022-07-29T07:28:15.478Z,324.4
2022-07-29T07:33:14.994Z,249.1
2022-07-29T07:38:14.435Z,505.8
2022-07-29T07:43:14.534Z,354.8
2022-07-29T07:48:14.667Z,273
2022-07-29T07:53:14.694Z,317
2022-07-29T07:58:13.591Z,386.8
2022-07-29T07:59:37.138Z,451.2
2022-07-29T08:04:34.488Z,461
2022-07-29T08:09:33.421Z,396.7
2022-07-29T08:14:32.561Z,183.3
2022-07-29T08:19:31.929Z,306.4
2022-07-29T08:24:52.638Z,185.4
2022-07-29T08:29:30.875Z,371
2022-07-29T08:34:31.139Z,587.8
2022-07-29T08:39:29.226Z,723.7
2022-07-29T08:44:32.778Z,650
2022-07-29T08:49:28.412Z,689.6
2022-07-29T08:54:28.140Z,817.3
2022-07-29T08:59:22.748Z,264
2022-07-29T09:04:17.625Z,425
2022-07-29T09:09:17.019Z,613.8
2022-07-29T09:14:14.459Z,701.6
2022-07-29T09:19:13.656Z,742.3
2022-07-29T09:24:12.901Z,800.4
2022-07-29T09:29:12.554Z,386.9
2022-07-29T09:34:12.222Z,233.6
2022-07-29T09:39:12.816Z,867.1
2022-07-29T09:44:11.218Z,537.1
2022-07-29T09:49:10.976Z,384.8
2022-07-29T09:54:09.416Z,898
2022-07-29T09:58:55.739Z,573.6
2022-07-29T10:03:55.120Z,444.5
2022-07-29T10:08:54.155Z,681.8
2022-07-29T10:13:54.073Z,744.9
2022-07-29T10:18:54.301Z,188.7
2022-07-29T10:23:53.478Z,919.7
2022-07-29T10:28:52.808Z,879.4
2022-07-29T10:33:52.200Z,855.8
2022-07-29T10:38:51.281Z,844.2
2022-07-29T10:43:55.315Z,848.8
2022-07-29T10:48:49.957Z,853
2022-07-29T10:53:49.296Z,890.2
2022-07-29T10:58:55.244Z,794
2022-07-29T11:03:57.138Z,688
2022-07-29T12:07:16.677Z,943.3
2022-07-29T12:07:26.276Z,854.2
2022-07-29T12:13:39.603Z,117
2022-07-29T12:18:37.749Z,109.9
2022-07-29T12:23:37.225Z,270.5
2022-07-29T12:28:36.273Z,268.9
2022-07-29T12:33:35.099Z,437.3
2022-07-29T12:38:34.007Z,440.5
2022-07-29T12:43:33.661Z,384.4
2022-07-29T12:48:33.429Z,376.7
2022-07-29T12:53:30.651Z,309.8
2022-07-29T12:58:29.367Z,349.4
2022-07-29T12:59:51.273Z,319.8
2022-07-29T13:04:50.246Z,274.6
2022-07-29T13:09:49.668Z,264.1
2022-07-29T13:14:49.837Z,269.7
2022-07-29T13:19:49.328Z,293.4
2022-07-29T13:24:48.410Z,266
2022-07-29T13:29:48.085Z,253.3
2022-07-29T13:34:45.041Z,241.2
2022-07-29T13:39:54.456Z,238
2022-07-29T13:44:43.243Z,225.6
2022-07-29T13:49:43.045Z,236.7
2022-07-29T13:54:44.290Z,248.1
2022-07-29T13:59:15.948Z,280.8
2022-07-29T14:04:15.547Z,310.3
2022-07-29T14:09:14.434Z,278.7
2022-07-29T14:14:12.251Z,228
2022-07-29T14:19:11.450Z,253.9
2022-07-29T14:24:23.920Z,223
2022-07-29T14:29:10.807Z,183.7
2022-07-29T14:34:09.659Z,191.2
2022-07-29T14:39:08.918Z,186.4
2022-07-29T14:44:09.074Z,199
2022-07-29T14:49:15.634Z,206
2022-07-29T14:54:15.242Z,300.1
2022-07-29T14:58:54.371Z,362.7
2022-07-29T15:04:00.702Z,344.9
2022-07-29T15:08:53.087Z,342.8
2022-07-29T15:13:53.069Z,203.8
2022-07-29T15:18:52.732Z,286.5
2022-07-29T15:23:52.955Z,234.6
2022-07-29T15:28:51.214Z,224.6
2022-07-29T15:34:03.645Z,284.6
2022-07-29T15:38:48.244Z,230.2
2022-07-29T15:43:47.513Z,175.1
2022-07-29T15:48:47.169Z,136.4
2022-07-29T15:53:55.170Z,116.5
2022-07-29T15:58:45.878Z,114.4
2022-07-29T16:03:47.773Z,100.2
2022-07-29T16:08:45.561Z,97.3
2022-07-29T16:13:45.207Z,103.6
2022-07-29T16:18:44.267Z,93.2
2022-07-29T16:23:41.535Z,71.5
2022-07-29T16:28:40.417Z,80.1
2022-07-29T16:33:56.793Z,84.5
2022-07-29T16:38:48.857Z,81.8
2022-07-29T16:43:38.978Z,75.3
2022-07-29T16:48:40.909Z,101.6
2022-07-29T16:53:37.614Z,108.5
2022-07-29T16:58:43.412Z,83.8
2022-07-29T17:03:36.753Z,84.2
2022-07-29T17:08:33.543Z,82.8
2022-07-29T17:13:33.740Z,91.8
2022-07-29T17:18:32.893Z,76.3
2022-07-29T17:23:32.857Z,72.6
2022-07-29T17:28:32.535Z,79.4
2022-07-29T17:33:32.751Z,69.6
2022-07-29T17:38:31.398Z,60.6
2022-07-29T17:43:30.389Z,98.2
2022-07-29T17:48:28.019Z,62.9
2022-07-29T17:53:26.863Z,47.4
2022-07-29T17:58:25.528Z,42.8
2022-07-29T17:59:47.167Z,41.6
2022-07-29T18:04:52.103Z,35.1
2022-07-29T18:09:46.163Z,30.8
2022-07-29T18:14:45.624Z,28.2
2022-07-29T18:19:44.551Z,24.5
2022-07-29T18:24:43.636Z,21.4
2022-07-29T18:29:41.229Z,18.5
2022-07-29T18:34:40.315Z,15.2
2022-07-29T18:39:39.266Z,10.8
2022-07-29T18:44:49.944Z,8.7
2022-07-29T18:49:37.902Z,6.7
2022-07-29T18:54:37.914Z,5.1
2022-07-29T18:59:14.636Z,4.3
2022-07-29T19:04:13.814Z,3.8
2022-07-29T19:09:12.544Z,3
2022-07-29T19:14:11.297Z,2.1
2022-07-29T19:19:10.250Z,1.5
2022-07-29T19:24:16.558Z,1
2022-07-29T19:29:08.602Z,0.6
2022-07-29T19:34:15.742Z,0.5
2022-07-29T19:39:14.720Z,0.4
2022-07-29T19:44:14.427Z,0.3
2022-07-29T19:49:13.907Z,0.3
2022-07-29T19:54:13.191Z,0.3
2022-07-29T19:58:53.837Z,0.3
2022-07-29T20:03:51.671Z,0.3
2022-07-29T20:08:58.544Z,0.3
2022-07-29T20:13:51.635Z,0.3
2022-07-29T20:18:49.892Z,0.3
2022-07-29T20:23:49.608Z,0.3
2022-07-29T20:28:51.263Z,0.3
2022-07-29T20:33:45.864Z,0.3
2022-07-29T20:38:45.201Z,0.3
2022-07-29T20:43:44.356Z,0.3
2022-07-29T20:48:44.224Z,0.3
2022-07-29T20:53:43.415Z,0.3
2022-07-29T20:58:43.397Z,0.3
2022-07-29T21:00:13.240Z,0.3
2022-07-29T21:05:13.521Z,0.3
2022-07-29T21:10:10.457Z,0.3
2022-07-29T21:15:10.500Z,0.3
2022-07-29T21:20:10.015Z,0.3
2022-07-29T21:25:09.173Z,0.3
2022-07-29T21:30:01.732Z,0.3
2022-07-29T21:34:59.696Z,0.3
2022-07-29T21:39:58.749Z,0.3
2022-07-29T21:44:56.876Z,0.3
2022-07-29T21:49:55.837Z,0.3
2022-07-29T21:54:54.955Z,0.3
2022-07-29T21:59:15.223Z,0.2
2022-07-29T22:04:14.703Z,0.3
2022-07-29T22:09:13.954Z,0.3
2022-07-29T22:14:13.029Z,0.3
2022-07-29T22:19:12.024Z,0.3
2022-07-29T22:24:11.227Z,0.3
2022-07-29T22:29:09.944Z,0.3
2022-07-29T22:34:09.261Z,0.3
2022-07-29T22:39:17.794Z,0.3
2022-07-29T22:44:15.518Z,0.3
2022-07-29T22:49:15.064Z,0.3
2022-07-29T22:54:14.028Z,0.3
2022-07-29T22:58:58.384Z,0.3
2022-07-29T23:03:56.323Z,0.3
2022-07-29T23:08:55.109Z,0.3
2022-07-29T23:13:54.810Z,0.3
2022-07-29T23:18:53.828Z,0.3
2022-07-29T23:23:53.395Z,0.3
2022-07-29T23:28:53.130Z,0.3
2022-07-29T23:33:52.140Z,0.3
2022-07-29T23:38:52.527Z,0.3
2022-07-29T23:43:48.601Z,0.3
2022-07-29T23:48:47.808Z,0.3
2022-07-29T23:53:55.241Z,0.3
2022-07-29T23:58:46.180Z,0.3
